McKenzie, Alabama
Current Conditions -  °F | °C
As of 8:16 PM on Monday 22 Dec 2014 (Local Time) from KGZH Reporting Station
Overcast Overcast  
Wind Chill: 62°   Ceiling: 800
Heat Index: 62°   Visibility: 10mi
Dew Point: 59°   Wind: 6mph
Humidity: 90%   Direction: 120°ESE
Pressure: 29.81"   Gusts: NA
Location:  31.54°N, 86.71°W
Report Text: KGZH 230216Z AUTO 12005KT 10SM BKN008 OVC012 17/15 A2981 RMK AO2 CIG 005V012 T01670150
Loading
Personal Weather Stations






























Interactive Weather Map New forecast layout! Learn more

10-Day Weather Forecast

Advertisements
Track Severe Weather on mobile